Time;durP1;ratioP1;P1;durP2;ratioP2;P2;SDS_P1;SDS_P2;PMS_P1;PMS_P2;Temp;Humidity;BMP_temperature;BMP_pressure;BME280_temperature;BME280_humidity;BME280_pressure;Samples;Min_cycle;Max_cycle;Signal;HPM_P1;HPM_P2
2020/12/21 00:01:31;;;;;;;18.85;6.03;;;;;;;4.04;100.00;101973.66;4954091;28;20043;-69
2020/12/21 00:03:56;;;;;;;19.13;5.32;;;;;;;3.97;100.00;101977.69;4954422;28;20055;-69
2020/12/21 00:06:22;;;;;;;26.17;5.65;;;;;;;3.98;100.00;101975.88;4953786;28;20028;-68
2020/12/21 00:08:47;;;;;;;25.92;5.88;;;;;;;3.95;100.00;101970.75;4954315;28;20099;-69
2020/12/21 00:11:13;;;;;;;22.55;5.60;;;;;;;3.92;100.00;101977.09;4954130;28;20038;-69
2020/12/21 00:13:44;;;;;;;19.60;5.93;;;;;;;3.93;100.00;101975.31;4953948;28;20045;-69
2020/12/21 00:16:10;;;;;;;21.08;6.53;;;;;;;3.94;100.00;101969.03;4954027;28;20033;-69
2020/12/21 00:18:38;;;;;;;14.70;4.95;;;;;;;3.86;100.00;101970.34;4940979;29;20081;-68
2020/12/21 00:21:05;;;;;;;23.92;4.70;;;;;;;3.90;100.00;101971.88;4953013;28;20046;-69
2020/12/21 00:23:31;;;;;;;17.35;5.00;;;;;;;3.92;100.00;101970.94;4954105;28;20067;-69
2020/12/21 00:25:57;;;;;;;30.27;5.68;;;;;;;3.84;100.00;101969.59;4953494;28;20070;-68
2020/12/21 00:28:22;;;;;;;28.88;5.38;;;;;;;3.86;100.00;101973.00;4953488;28;20046;-69
2020/12/21 00:30:48;;;;;;;16.55;5.40;;;;;;;3.83;100.00;101962.59;4953763;28;20035;-69
2020/12/21 00:33:14;;;;;;;21.73;6.20;;;;;;;3.85;100.00;101963.34;4968726;28;20615;-68
2020/12/21 00:35:41;;;;;;;23.88;5.72;;;;;;;3.81;100.00;101958.31;4952706;29;20035;-68
2020/12/21 00:38:08;;;;;;;19.83;4.85;;;;;;;3.80;100.00;101953.97;4953530;28;20484;-68
2020/12/21 00:40:33;;;;;;;21.73;6.13;;;;;;;3.74;100.00;101954.34;4953614;28;20031;-68
2020/12/21 00:42:59;;;;;;;30.08;6.30;;;;;;;3.74;100.00;101949.03;4953894;28;20046;-68
2020/12/21 00:45:24;;;;;;;27.05;5.43;;;;;;;3.77;100.00;101946.22;4951960;28;20082;-69
2020/12/21 00:47:50;;;;;;;32.05;6.70;;;;;;;3.83;100.00;101949.31;4952353;28;20024;-69
2020/12/21 00:50:15;;;;;;;23.08;5.57;;;;;;;3.76;100.00;101950.63;4952657;28;20692;-70
2020/12/21 00:52:41;;;;;;;26.83;5.75;;;;;;;3.74;100.00;101949.91;4953396;28;20130;-69
2020/12/21 00:55:06;;;;;;;16.85;4.95;;;;;;;3.78;100.00;101964.69;4953257;28;20031;-68
2020/12/21 00:57:33;;;;;;;18.92;5.25;;;;;;;3.81;100.00;101956.50;4952657;28;20035;-68
2020/12/21 01:00:00;;;;;;;24.48;5.85;;;;;;;3.85;100.00;101954.53;4953392;28;20046;-68
2020/12/21 01:02:26;;;;;;;24.42;5.38;;;;;;;3.80;100.00;101953.97;4952819;28;20039;-69
2020/12/21 01:04:51;;;;;;;17.60;4.95;;;;;;;3.77;100.00;101941.75;4952523;28;20095;-68
2020/12/21 01:07:17;;;;;;;21.77;5.53;;;;;;;3.78;100.00;101942.59;4952552;28;20027;-69
2020/12/21 01:09:46;;;;;;;32.80;5.28;;;;;;;3.81;100.00;101945.03;4953176;28;20035;-69
2020/12/21 01:12:14;;;;;;;29.05;5.45;;;;;;;3.78;100.00;101940.78;4952882;28;20031;-69
2020/12/21 01:14:40;;;;;;;32.75;6.90;;;;;;;3.88;100.00;101949.88;4951731;28;20082;-68
2020/12/21 01:17:07;;;;;;;25.05;5.22;;;;;;;3.84;100.00;101945.72;4949709;29;20407;-69
2020/12/21 01:19:32;;;;;;;25.13;5.45;;;;;;;3.82;100.00;101941.47;4951381;28;20023;-68
2020/12/21 01:21:58;;;;;;;26.50;5.05;;;;;;;3.83;100.00;101936.06;4951689;28;20031;-69
2020/12/21 01:24:23;;;;;;;17.23;4.90;;;;;;;3.88;100.00;101927.81;4952487;28;20078;-69
2020/12/21 01:26:49;;;;;;;19.27;4.97;;;;;;;3.87;100.00;101934.91;4951938;28;20484;-69
2020/12/21 01:29:15;;;;;;;21.40;5.20;;;;;;;3.81;100.00;101937.94;4952632;28;20031;-68
2020/12/21 01:31:40;;;;;;;23.25;4.97;;;;;;;3.83;100.00;101938.72;4952475;28;20042;-68
2020/12/21 01:34:06;;;;;;;17.75;4.80;;;;;;;3.88;100.00;101935.75;4951106;29;20403;-68
2020/12/21 01:36:31;;;;;;;13.15;5.20;;;;;;;3.88;100.00;101936.63;4951868;28;20517;-68
2020/12/21 01:38:57;;;;;;;16.60;5.65;;;;;;;3.88;100.00;101944.59;4952780;28;20037;-68
2020/12/21 01:41:22;;;;;;;20.92;5.10;;;;;;;3.84;100.00;101948.38;4952336;28;20500;-68
2020/12/21 01:43:48;;;;;;;17.88;4.63;;;;;;;3.79;100.00;101945.16;4952423;28;20123;-68
2020/12/21 01:46:16;;;;;;;21.48;4.20;;;;;;;3.81;100.00;101947.69;4951836;28;20031;-68
2020/12/21 01:48:43;;;;;;;27.00;5.20;;;;;;;3.78;100.00;101948.75;4951975;28;20031;-68
2020/12/21 01:51:20;;;;;;;18.83;4.97;;;;;;;3.81;100.00;101935.28;4952031;28;20035;-70
2020/12/21 01:53:45;;;;;;;19.50;4.93;;;;;;;3.80;100.00;101938.88;4952283;28;20552;-68
2020/12/21 01:56:14;;;;;;;15.70;5.18;;;;;;;3.76;100.00;101944.47;4942976;28;20027;-68
2020/12/21 01:58:40;;;;;;;21.85;5.78;;;;;;;3.74;100.00;101941.94;4949128;29;20038;-68
2020/12/21 02:01:07;;;;;;;23.02;5.43;;;;;;;3.73;100.00;101940.22;4951514;28;20039;-68
2020/12/21 02:03:33;;;;;;;23.75;5.22;;;;;;;3.71;100.00;101926.19;4952800;28;20086;-68
2020/12/21 02:05:59;;;;;;;24.10;4.93;;;;;;;3.71;100.00;101928.84;4952612;28;20404;-68
2020/12/21 02:08:31;;;;;;;21.92;5.78;;;;;;;3.70;100.00;101935.09;4951612;28;20042;-68
2020/12/21 02:11:04;;;;;;;16.67;4.97;;;;;;;3.70;100.00;101929.78;4952328;28;20439;-68
2020/12/21 02:13:49;;;;;;;28.42;6.15;;;;;;;3.71;100.00;101934.16;4951483;29;20586;-69
2020/12/21 02:16:24;;;;;;;25.42;4.97;;;;;;;3.72;100.00;101929.72;4950984;28;20094;-68
2020/12/21 02:18:49;;;;;;;16.85;5.68;;;;;;;3.82;100.00;101933.50;4951991;28;20035;-68
2020/12/21 02:21:15;;;;;;;24.20;5.05;;;;;;;3.83;100.00;101927.25;4951053;28;20066;-68
2020/12/21 02:23:41;;;;;;;20.33;4.68;;;;;;;3.80;100.00;101922.97;4951477;28;20031;-68
2020/12/21 02:26:06;;;;;;;33.22;5.68;;;;;;;3.82;100.00;101918.44;4951307;28;20039;-68
2020/12/21 02:28:32;;;;;;;26.05;6.13;;;;;;;3.84;100.00;101913.00;4951655;28;20064;-68
2020/12/21 02:31:05;;;;;;;27.63;5.00;;;;;;;3.84;100.00;101924.47;4951501;28;20121;-69
2020/12/21 02:33:41;;;;;;;24.15;5.40;;;;;;;3.96;100.00;101922.84;4950353;28;20440;-68
2020/12/21 02:36:07;;;;;;;24.70;5.43;;;;;;;3.96;100.00;101929.97;4950513;28;20268;-68
2020/12/21 02:38:32;;;;;;;24.10;6.10;;;;;;;4.05;100.00;101927.56;4948564;29;20046;-68
2020/12/21 02:40:58;;;;;;;17.83;5.50;;;;;;;4.07;100.00;101940.78;4950846;28;20496;-68
2020/12/21 02:43:25;;;;;;;19.30;5.45;;;;;;;4.12;100.00;101936.03;4950328;28;20037;-68
2020/12/21 02:45:51;;;;;;;21.63;5.20;;;;;;;4.09;100.00;101933.56;4965116;28;20031;-68
2020/12/21 02:48:16;;;;;;;18.15;6.50;;;;;;;4.06;100.00;101926.63;4950362;28;20062;-68
2020/12/21 02:50:43;;;;;;;28.75;6.07;;;;;;;4.07;100.00;101927.50;4950643;28;20117;-68
2020/12/21 02:53:12;;;;;;;24.70;5.07;;;;;;;4.06;100.00;101931.06;4950530;28;20038;-68
2020/12/21 02:55:37;;;;;;;23.15;5.13;;;;;;;4.08;100.00;101926.53;4950612;28;20533;-68
2020/12/21 02:58:03;;;;;;;26.02;5.35;;;;;;;4.03;100.00;101920.66;4950005;28;20126;-68
2020/12/21 03:00:29;;;;;;;28.95;5.28;;;;;;;4.01;100.00;101920.75;4950988;28;20041;-68
2020/12/21 03:02:55;;;;;;;30.15;5.63;;;;;;;3.99;100.00;101921.81;4949679;28;20055;-68
2020/12/21 03:05:20;;;;;;;32.47;5.78;;;;;;;3.95;100.00;101907.03;4951383;28;20086;-68
2020/12/21 03:07:46;;;;;;;24.20;5.78;;;;;;;3.92;100.00;101912.53;4950661;28;20078;-68
2020/12/21 03:10:12;;;;;;;20.27;5.30;;;;;;;4.01;100.00;101902.16;4951475;28;20523;-68
2020/12/21 03:12:38;;;;;;;23.90;5.45;;;;;;;4.01;100.00;101901.31;4951253;28;20043;-68
2020/12/21 03:15:04;;;;;;;17.08;4.75;;;;;;;4.03;100.00;101902.09;4950242;28;20448;-68
2020/12/21 03:17:29;;;;;;;30.65;5.68;;;;;;;3.99;100.00;101905.88;4950736;28;20118;-68
2020/12/21 03:19:55;;;;;;;27.50;7.50;;;;;;;3.98;100.00;101904.19;4951370;28;20027;-68
2020/12/21 03:22:22;;;;;;;24.02;6.68;;;;;;;4.04;100.00;101906.44;4950816;28;20089;-69
2020/12/21 03:24:48;;;;;;;26.60;5.57;;;;;;;3.99;100.00;101911.19;4965806;28;20031;-68
2020/12/21 03:27:13;;;;;;;26.15;6.18;;;;;;;3.96;100.00;101911.38;4950198;28;20432;-68
2020/12/21 03:29:40;;;;;;;27.42;6.05;;;;;;;3.98;100.00;101906.84;4953701;28;20035;-68
2020/12/21 03:32:05;;;;;;;28.00;5.93;;;;;;;4.04;100.00;101901.13;4953933;28;20027;-68
2020/12/21 03:34:31;;;;;;;33.22;5.63;;;;;;;4.05;100.00;101903.66;4953063;28;20038;-68
2020/12/21 03:36:57;;;;;;;26.10;5.63;;;;;;;4.06;100.00;101902.72;4952570;28;20039;-68
2020/12/21 03:39:22;;;;;;;22.08;5.57;;;;;;;4.04;100.00;101898.47;4953947;28;20097;-68
2020/12/21 03:41:48;;;;;;;24.25;5.57;;;;;;;4.06;100.00;101894.75;4954191;28;20515;-68
2020/12/21 03:44:14;;;;;;;22.92;5.25;;;;;;;4.10;100.00;101885.63;4950441;28;20046;-68
2020/12/21 03:46:39;;;;;;;24.95;5.57;;;;;;;4.23;100.00;101895.50;4950717;28;20035;-68
2020/12/21 03:49:05;;;;;;;27.98;6.45;;;;;;;4.21;100.00;101890.25;4953003;28;20137;-68
2020/12/21 03:51:30;;;;;;;32.55;7.43;;;;;;;4.20;100.00;101885.91;4953247;28;20066;-68
2020/12/21 03:53:56;;;;;;;21.55;5.82;;;;;;;4.23;100.00;101883.06;4953337;28;20488;-68
2020/12/21 03:56:21;;;;;;;27.52;5.82;;;;;;;4.22;100.00;101875.16;4953070;28;20480;-68
2020/12/21 03:58:47;;;;;;;27.58;5.05;;;;;;;4.24;100.00;101871.47;4952982;29;20138;-68
2020/12/21 04:01:13;;;;;;;21.58;5.00;;;;;;;4.24;100.00;101860.84;4953445;28;20031;-68
2020/12/21 04:03:39;;;;;;;21.13;5.50;;;;;;;4.30;100.00;101859.59;4952938;28;20031;-69
2020/12/21 04:06:04;;;;;;;21.52;4.38;;;;;;;4.33;100.00;101868.22;4953077;28;20039;-68
2020/12/21 04:08:30;;;;;;;16.33;3.97;;;;;;;4.33;100.00;101862.06;4952302;28;20030;-68
2020/12/21 04:10:58;;;;;;;18.83;5.07;;;;;;;4.35;100.00;101858.31;4953576;29;20043;-68
2020/12/21 04:13:24;;;;;;;17.30;4.55;;;;;;;4.34;100.00;101861.09;4952620;29;20126;-68
2020/12/21 04:15:51;;;;;;;19.55;4.65;;;;;;;4.41;100.00;101849.94;4953424;28;20102;-68
2020/12/21 04:18:17;;;;;;;22.63;4.47;;;;;;;4.50;100.00;101855.59;4952316;28;20139;-68
2020/12/21 04:20:42;;;;;;;18.13;4.88;;;;;;;4.57;100.00;101849.81;4953524;28;20448;-68
2020/12/21 04:23:08;;;;;;;14.55;4.45;;;;;;;4.58;100.00;101845.34;4951290;29;20126;-68
2020/12/21 04:25:34;;;;;;;18.35;6.22;;;;;;;4.65;100.00;101847.47;4953064;28;20035;-68
2020/12/21 04:27:59;;;;;;;23.00;5.57;;;;;;;4.70;100.00;101841.81;4951516;28;20038;-68
2020/12/21 04:30:25;;;;;;;24.63;5.35;;;;;;;4.74;100.00;101843.34;4953109;28;20066;-68
2020/12/21 04:32:51;;;;;;;24.88;4.70;;;;;;;4.81;100.00;101838.44;4952538;28;20126;-68
2020/12/21 04:35:16;;;;;;;16.55;4.28;;;;;;;4.79;100.00;101829.72;4952044;28;20560;-68
2020/12/21 04:37:42;;;;;;;18.50;4.50;;;;;;;4.80;100.00;101818.13;4951918;28;20595;-68
2020/12/21 04:40:08;;;;;;;28.20;4.97;;;;;;;4.90;100.00;101821.84;4951716;28;20047;-68
2020/12/21 04:42:46;;;;;;;21.02;4.80;;;;;;;4.88;100.00;101815.81;4952993;28;20147;-68
2020/12/21 04:45:12;;;;;;;23.85;4.82;;;;;;;4.93;100.00;101814.53;4966831;28;20122;-68
2020/12/21 04:47:41;;;;;;;21.75;5.13;;;;;;;4.91;100.00;101810.25;4952092;28;20122;-68
2020/12/21 04:50:16;;;;;;;16.15;4.35;;;;;;;4.93;100.00;101805.72;4952367;28;20031;-68
2020/12/21 04:52:46;;;;;;;24.48;5.47;;;;;;;4.93;100.00;101808.38;4952897;28;20038;-68
2020/12/21 04:55:15;;;;;;;16.40;4.43;;;;;;;4.90;100.00;101805.91;4950803;28;20059;-68
2020/12/21 04:57:40;;;;;;;19.60;4.68;;;;;;;4.92;100.00;101812.00;4940821;29;20110;-68
2020/12/21 05:00:06;;;;;;;28.20;5.07;;;;;;;4.92;100.00;101817.31;4951578;28;20465;-68
2020/12/21 05:02:32;;;;;;;20.42;4.53;;;;;;;4.92;100.00;101812.00;4951854;28;20552;-68
2020/12/21 05:04:57;;;;;;;24.75;4.45;;;;;;;4.97;100.00;101814.28;4951676;28;20032;-68
2020/12/21 05:07:30;;;;;;;16.92;4.88;;;;;;;4.96;100.00;101799.31;4966755;28;20082;-68
2020/12/21 05:10:06;;;;;;;13.38;4.95;;;;;;;4.99;100.00;101807.94;4951725;28;20038;-68
2020/12/21 05:12:32;;;;;;;22.92;4.75;;;;;;;5.06;100.00;101811.84;4952497;28;20451;-68
2020/12/21 05:14:57;;;;;;;27.63;5.45;;;;;;;5.09;100.00;101810.81;4951675;28;20480;-68
2020/12/21 05:17:23;;;;;;;25.08;4.72;;;;;;;5.04;100.00;101804.94;4951852;28;20031;-68
2020/12/21 05:19:49;;;;;;;21.67;5.70;;;;;;;5.05;100.00;101804.84;4951088;28;20074;-68
2020/12/21 05:22:15;;;;;;;19.92;5.07;;;;;;;5.04;100.00;101812.94;4951941;28;20515;-69
2020/12/21 05:24:42;;;;;;;24.80;4.60;;;;;;;5.06;100.00;101805.69;4951307;28;20035;-68
2020/12/21 05:27:17;;;;;;;25.08;5.72;;;;;;;5.11;100.00;101793.75;4951230;28;20085;-68
2020/12/21 05:29:57;;;;;;;21.10;5.20;;;;;;;5.15;100.00;101787.28;4951539;28;20392;-68
2020/12/21 05:32:23;;;;;;;17.73;5.47;;;;;;;5.18;100.00;101776.44;4951909;28;20444;-69
2020/12/21 05:34:49;;;;;;;27.25;6.10;;;;;;;5.25;100.00;101774.16;4950627;28;20058;-68
2020/12/21 05:37:16;;;;;;;22.58;5.63;;;;;;;5.27;100.00;101782.91;4950921;28;20496;-69
2020/12/21 05:39:51;;;;;;;31.23;6.57;;;;;;;5.31;100.00;101781.72;4951226;28;20082;-68
2020/12/21 05:42:18;;;;;;;24.10;5.97;;;;;;;5.40;100.00;101775.75;4951872;28;20031;-68
2020/12/21 05:44:53;;;;;;;24.25;7.18;;;;;;;5.46;100.00;101777.09;4951005;28;20027;-68
2020/12/21 05:47:18;;;;;;;24.92;6.07;;;;;;;5.48;100.00;101782.34;4950861;28;20066;-68
2020/12/21 05:49:52;;;;;;;19.98;6.20;;;;;;;5.55;100.00;101784.44;4951068;28;20063;-68
2020/12/21 05:52:26;;;;;;;25.73;6.32;;;;;;;5.54;100.00;101781.88;4950457;28;20038;-68
2020/12/21 05:54:53;;;;;;;22.77;6.50;;;;;;;5.57;100.00;101784.31;4951140;28;20023;-68
2020/12/21 05:57:20;;;;;;;25.27;8.05;;;;;;;5.56;100.00;101777.28;4950968;28;20047;-69
2020/12/21 05:59:51;;;;;;;20.85;6.20;;;;;;;5.65;100.00;101779.28;4965880;28;20515;-69
2020/12/21 06:02:18;;;;;;;15.70;6.82;;;;;;;5.65;100.00;101779.28;4965994;28;20129;-69
2020/12/21 06:04:49;;;;;;;23.23;6.40;;;;;;;5.66;100.00;101780.97;4950485;29;20042;-68
2020/12/21 06:07:21;;;;;;;21.13;6.43;;;;;;;5.65;100.00;101781.94;4951096;28;20090;-68
2020/12/21 06:09:50;;;;;;;24.80;6.35;;;;;;;5.72;100.00;101783.19;4949875;29;20114;-68
2020/12/21 06:12:19;;;;;;;19.85;6.35;;;;;;;5.72;100.00;101775.19;4951389;28;20029;-69
2020/12/21 06:14:50;;;;;;;22.83;6.45;;;;;;;5.78;100.00;101774.78;4950576;28;20038;-68
2020/12/21 06:17:16;;;;;;;25.98;6.65;;;;;;;5.79;100.00;101778.28;4950641;28;20500;-69
2020/12/21 06:19:41;;;;;;;29.33;7.00;;;;;;;5.76;100.00;101776.69;4949041;29;20031;-68
2020/12/21 06:22:07;;;;;;;30.88;8.07;;;;;;;5.77;100.00;101772.22;4951157;28;20039;-69
2020/12/21 06:24:38;;;;;;;18.40;7.30;;;;;;;5.76;100.00;101771.34;4950345;28;20027;-68
2020/12/21 06:27:13;;;;;;;28.38;7.13;;;;;;;5.78;100.00;101764.13;4950461;28;20039;-69
2020/12/21 06:29:39;;;;;;;27.17;6.97;;;;;;;5.85;100.00;101772.50;4950475;28;20042;-69
2020/12/21 06:32:06;;;;;;;24.52;7.25;;;;;;;5.84;100.00;101769.00;4950599;28;20023;-69
2020/12/21 06:34:35;;;;;;;18.40;7.38;;;;;;;5.90;100.00;101755.22;4950561;28;20039;-69
2020/12/21 06:37:02;;;;;;;32.10;7.28;;;;;;;5.90;100.00;101757.88;4949506;28;20420;-69
2020/12/21 06:39:28;;;;;;;22.83;6.60;;;;;;;5.91;100.00;101751.63;4950631;28;20039;-68
2020/12/21 06:42:09;;;;;;;28.13;7.28;;;;;;;5.93;100.00;101755.03;4950537;28;20500;-68
2020/12/21 06:44:38;;;;;;;31.50;7.75;;;;;;;5.99;100.00;101760.88;4950498;28;20031;-68
2020/12/21 06:47:05;;;;;;;30.48;8.88;;;;;;;6.01;100.00;101750.94;4949684;28;20042;-68
2020/12/21 06:49:31;;;;;;;19.27;6.68;;;;;;;6.08;100.00;101745.06;4950751;28;20062;-68
2020/12/21 06:51:56;;;;;;;28.48;7.25;;;;;;;6.14;100.00;101749.91;4949183;29;20040;-68
2020/12/21 06:54:22;;;;;;;23.95;7.82;;;;;;;6.12;100.00;101749.16;4950779;28;20543;-68
2020/12/21 06:56:49;;;;;;;27.00;8.48;;;;;;;6.15;100.00;101740.09;4936884;28;20527;-68
2020/12/21 06:59:16;;;;;;;25.17;7.95;;;;;;;6.18;100.00;101753.19;4950558;28;20881;-69
2020/12/21 07:01:44;;;;;;;22.38;6.97;;;;;;;6.20;100.00;101746.78;4949655;28;20027;-69
2020/12/21 07:04:12;;;;;;;22.35;7.13;;;;;;;6.24;100.00;101742.06;4950527;28;20042;-69
2020/12/21 07:06:38;;;;;;;30.02;6.97;;;;;;;6.28;100.00;101750.69;4949715;28;20038;-69
2020/12/21 07:09:05;;;;;;;20.55;7.43;;;;;;;6.29;100.00;101745.25;4950806;28;20054;-68
2020/12/21 07:11:31;;;;;;;22.75;6.97;;;;;;;6.34;100.00;101745.75;4949490;28;20074;-69
2020/12/21 07:13:57;;;;;;;21.40;7.15;;;;;;;6.44;100.00;101738.72;4950948;28;20465;-68
2020/12/21 07:16:23;;;;;;;23.33;7.97;;;;;;;6.54;100.00;101728.22;4949558;28;20031;-68
2020/12/21 07:18:49;;;;;;;21.30;7.13;;;;;;;6.54;100.00;101728.22;4950495;28;20381;-69
2020/12/21 07:21:16;;;;;;;38.58;7.30;;;;;;;6.57;100.00;101740.44;4949830;28;20104;-68
2020/12/21 07:23:43;;;;;;;16.88;6.03;;;;;;;6.64;100.00;101736.34;4950516;28;20034;-69
2020/12/21 07:26:12;;;;;;;18.70;6.03;;;;;;;6.60;100.00;101735.72;4949664;28;20039;-69
2020/12/21 07:28:37;;;;;;;17.50;6.13;;;;;;;6.63;100.00;101732.00;4950258;28;20404;-68
2020/12/21 07:31:05;;;;;;;16.88;6.03;;;;;;;6.68;100.00;101729.81;4950417;28;20031;-69
2020/12/21 07:33:32;;;;;;;15.50;5.32;;;;;;;6.68;100.00;101724.50;4950567;28;20039;-69
2020/12/21 07:35:58;;;;;;;21.70;5.70;;;;;;;6.69;100.00;101726.19;4949575;28;20492;-68
2020/12/21 07:38:24;;;;;;;16.73;5.18;;;;;;;6.70;100.00;101722.53;4949711;28;20063;-69
2020/12/21 07:40:52;;;;;;;16.52;5.22;;;;;;;6.70;100.00;101728.72;4949840;28;20046;-68
2020/12/21 07:43:26;;;;;;;17.85;5.25;;;;;;;6.77;100.00;101733.56;4950617;28;20037;-69
2020/12/21 07:45:58;;;;;;;15.48;4.80;;;;;;;6.80;100.00;101739.50;4950130;28;20042;-69
2020/12/21 07:48:24;;;;;;;13.73;5.40;;;;;;;6.75;100.00;101726.53;4949567;28;20038;-71
2020/12/21 07:50:50;;;;;;;22.80;5.55;;;;;;;6.75;100.00;101725.69;4935408;28;20035;-71
2020/12/21 07:53:15;;;;;;;23.50;4.90;;;;;;;6.76;100.00;101732.72;4945315;29;20037;-69
2020/12/21 07:55:41;;;;;;;18.80;4.60;;;;;;;6.77;100.00;101723.75;4948093;28;20023;-69
2020/12/21 07:58:14;;;;;;;16.05;4.97;;;;;;;6.78;100.00;101725.47;4947660;28;20039;-68
2020/12/21 08:00:50;;;;;;;20.30;5.00;;;;;;;6.82;100.00;101734.06;4947965;28;20118;-69
2020/12/21 08:03:16;;;;;;;19.75;4.95;;;;;;;6.82;100.00;101729.56;4946040;29;20035;-69
2020/12/21 08:05:42;;;;;;;18.45;5.20;;;;;;;6.81;100.00;101727.03;4947969;28;20034;-69
2020/12/21 08:08:13;;;;;;;20.83;6.10;;;;;;;6.81;100.00;101730.53;4947056;28;20074;-69
2020/12/21 08:10:39;;;;;;;16.77;4.78;;;;;;;6.83;100.00;101719.75;4948161;28;20362;-69
2020/12/21 08:13:16;;;;;;;13.48;4.47;;;;;;;6.82;100.00;101713.56;4945459;28;20485;-69
2020/12/21 08:15:42;;;;;;;17.02;5.15;;;;;;;6.83;100.00;101717.94;4950284;28;20031;-69
2020/12/21 08:18:12;;;;;;;21.65;5.95;;;;;;;6.85;100.00;101716.00;4947108;29;20102;-68
2020/12/21 08:20:49;;;;;;;14.35;5.25;;;;;;;6.84;100.00;101700.13;4950544;28;20122;-69
2020/12/21 08:23:29;;;;;;;13.20;4.38;;;;;;;6.83;100.00;101696.63;4948529;29;20019;-69
2020/12/21 08:25:55;;;;;;;15.57;4.57;;;;;;;6.84;100.00;101692.97;4949302;28;20412;-68
2020/12/21 08:28:26;;;;;;;18.42;5.30;;;;;;;6.85;100.00;101691.16;4948831;29;20051;-69
2020/12/21 08:31:05;;;;;;;19.25;5.28;;;;;;;6.87;100.00;101698.03;4950344;29;20221;-69
2020/12/21 08:33:30;;;;;;;22.92;5.13;;;;;;;6.90;100.00;101692.47;4949741;28;20031;-69
2020/12/21 08:35:56;;;;;;;19.15;4.75;;;;;;;6.90;100.00;101687.13;4949558;28;20034;-69
2020/12/21 08:38:22;;;;;;;15.00;4.30;;;;;;;6.91;100.00;101686.16;4949661;28;20304;-68
2020/12/21 08:40:54;;;;;;;13.80;4.20;;;;;;;6.90;100.00;101673.81;4948805;29;20522;-68
2020/12/21 08:43:20;;;;;;;11.77;3.95;;;;;;;6.92;100.00;101669.19;4949117;28;20101;-69
2020/12/21 08:45:46;;;;;;;13.50;4.18;;;;;;;6.95;100.00;101660.94;4949802;28;20063;-69
2020/12/21 08:48:11;;;;;;;13.52;4.10;;;;;;;6.96;100.00;101664.47;4949512;28;20053;-69
2020/12/21 08:50:37;;;;;;;13.38;3.92;;;;;;;6.98;100.00;101668.72;4948774;28;20070;-69
2020/12/21 08:53:03;;;;;;;12.32;3.80;;;;;;;7.01;100.00;101670.28;4948825;28;20031;-69
2020/12/21 08:55:28;;;;;;;13.10;4.10;;;;;;;7.06;100.00;101654.75;4949891;28;20055;-69
2020/12/21 08:57:54;;;;;;;11.93;4.38;;;;;;;7.10;100.00;101660.69;4962865;28;20500;-69
2020/12/21 09:00:19;;;;;;;15.80;3.55;;;;;;;7.12;100.00;101654.25;4950022;28;20469;-70
2020/12/21 09:02:45;;;;;;;15.15;3.83;;;;;;;7.16;100.00;101638.84;4947992;29;20484;-70
2020/12/21 09:05:10;;;;;;;15.70;3.85;;;;;;;7.19;100.00;101638.59;4948730;28;20035;-70
2020/12/21 09:07:36;;;;;;;11.13;3.20;;;;;;;7.22;100.00;101644.50;4949179;28;20118;-70
2020/12/21 09:10:03;;;;;;;12.18;3.72;;;;;;;7.25;100.00;101638.09;4949838;28;20031;-69
2020/12/21 09:12:29;;;;;;;10.63;3.15;;;;;;;7.27;100.00;101631.63;4948508;28;20102;-69
2020/12/21 09:14:55;;;;;;;15.43;3.63;;;;;;;7.31;100.00;101628.72;4949540;28;20400;-70
2020/12/21 09:17:20;;;;;;;10.43;3.00;;;;;;;7.37;100.00;101628.22;4949800;28;20042;-70
2020/12/21 09:19:46;;;;;;;7.03;3.05;;;;;;;7.43;100.00;101630.38;4949871;28;20201;-70
2020/12/21 09:22:11;;;;;;;13.23;2.90;;;;;;;7.46;100.00;101630.13;4950018;28;20455;-69
2020/12/21 09:24:37;;;;;;;11.18;3.55;;;;;;;7.51;100.00;101627.94;4964486;28;20042;-69
2020/12/21 09:27:03;;;;;;;6.43;2.53;;;;;;;7.55;100.00;101615.19;4949368;28;20119;-70
2020/12/21 09:29:28;;;;;;;10.13;3.05;;;;;;;7.59;100.00;101605.94;4949496;28;20043;-70
2020/12/21 09:31:54;;;;;;;10.55;3.10;;;;;;;7.60;100.00;101616.50;4949731;28;20035;-70
2020/12/21 09:34:20;;;;;;;15.10;3.22;;;;;;;7.63;100.00;101604.69;4949091;28;20031;-70
2020/12/21 09:36:45;;;;;;;16.48;2.97;;;;;;;7.70;100.00;101604.06;4948971;28;20396;-70
2020/12/21 09:39:12;;;;;;;10.73;2.67;;;;;;;7.72;100.00;101596.75;4949225;28;20035;-70
2020/12/21 09:41:38;;;;;;;18.52;2.80;;;;;;;7.76;100.00;101600.03;4948666;28;20046;-70
2020/12/21 09:44:04;;;;;;;6.43;2.30;;;;;;;7.77;100.00;101594.53;4949001;28;20066;-70
2020/12/21 09:46:29;;;;;;;12.73;2.95;;;;;;;7.77;100.00;101589.19;4948169;29;20063;-69
2020/12/21 09:48:55;;;;;;;6.35;2.20;;;;;;;7.79;100.00;101584.59;4949333;28;20114;-70
2020/12/21 09:51:21;;;;;;;6.65;2.25;;;;;;;7.78;100.00;101588.25;4948015;28;20245;-69
2020/12/21 09:53:47;;;;;;;12.70;2.75;;;;;;;7.78;100.00;101582.91;4948677;28;20596;-69
2020/12/21 09:56:14;;;;;;;6.72;2.10;;;;;;;7.79;100.00;101573.06;4946563;28;20031;-69
2020/12/21 09:58:40;;;;;;;8.70;2.20;;;;;;;7.79;100.00;101573.06;4947590;28;20392;-69
2020/12/21 10:01:08;;;;;;;8.18;2.38;;;;;;;7.78;100.00;101563.31;4949160;28;20072;-69
2020/12/21 10:03:39;;;;;;;5.90;2.35;;;;;;;7.89;100.00;101554.44;4961985;28;20385;-69
2020/12/21 10:06:09;;;;;;;6.25;2.20;;;;;;;7.85;100.00;101547.66;4949408;28;20453;-69
2020/12/21 10:08:36;;;;;;;5.90;1.75;;;;;;;7.88;100.00;101544.69;4948107;28;20089;-69
2020/12/21 10:11:03;;;;;;;5.85;2.33;;;;;;;7.88;100.00;101534.88;4948166;29;20031;-69
2020/12/21 10:13:30;;;;;;;8.60;1.65;;;;;;;7.86;100.00;101523.47;4948180;28;20436;-69
2020/12/21 10:15:55;;;;;;;7.07;2.13;;;;;;;7.85;100.00;101512.91;4949454;28;20023;-69
2020/12/21 10:18:21;;;;;;;6.40;1.60;;;;;;;7.87;100.00;101505.59;4948519;28;20027;-69
2020/12/21 10:20:46;;;;;;;10.30;1.67;;;;;;;7.88;100.00;101500.16;4949191;28;20126;-69
2020/12/21 10:23:14;;;;;;;10.20;1.58;;;;;;;7.91;100.00;101493.69;4948257;28;20042;-69
2020/12/21 10:25:40;;;;;;;7.90;1.70;;;;;;;7.91;100.00;101488.34;4948300;28;20038;-69
2020/12/21 10:28:06;;;;;;;3.60;1.38;;;;;;;7.93;100.00;101481.91;4947908;29;20404;-70
2020/12/21 10:30:31;;;;;;;8.45;1.80;;;;;;;7.96;100.00;101470.91;4947403;29;20496;-70
2020/12/21 10:32:57;;;;;;;5.93;1.20;;;;;;;7.96;100.00;101462.06;4948104;28;20530;-69
2020/12/21 10:35:22;;;;;;;6.22;1.35;;;;;;;7.97;100.00;101461.06;4963011;28;20122;-71
2020/12/21 10:37:48;;;;;;;3.60;1.58;;;;;;;7.99;100.00;101456.47;4961327;28;20102;-70
2020/12/21 10:40:14;;;;;;;2.75;1.35;;;;;;;7.94;100.00;101458.69;4948230;28;20563;-69
2020/12/21 10:42:39;;;;;;;3.72;1.10;;;;;;;7.93;100.00;101463.19;4947808;28;20555;-68
2020/12/21 10:45:05;;;;;;;10.18;1.52;;;;;;;7.88;100.00;101449.38;4947614;28;20094;-67
2020/12/21 10:47:30;;;;;;;3.72;1.00;;;;;;;7.79;100.00;101435.00;4947650;29;20118;-68
2020/12/21 10:49:56;;;;;;;2.13;0.90;;;;;;;7.78;100.00;101421.75;4948045;28;20468;-68
2020/12/21 10:52:22;;;;;;;5.22;1.55;;;;;;;7.72;100.00;101417.81;4946972;28;20123;-68
2020/12/21 10:54:47;;;;;;;6.80;1.65;;;;;;;7.71;100.00;101407.25;4947334;28;20034;-68
2020/12/21 10:57:13;;;;;;;4.15;1.30;;;;;;;7.69;100.00;101399.41;4947504;29;20093;-68
2020/12/21 10:59:39;;;;;;;4.93;1.10;;;;;;;7.70;100.00;101394.91;4947634;28;20062;-68
2020/12/21 11:02:04;;;;;;;4.53;1.25;;;;;;;7.69;100.00;101387.88;4947120;28;20038;-67
2020/12/21 11:04:30;;;;;;;4.25;0.93;;;;;;;7.74;100.00;101404.34;4947536;28;20038;-67
2020/12/21 11:06:56;;;;;;;1.55;0.90;;;;;;;7.72;100.00;101399.09;4946913;28;20027;-67
2020/12/21 11:09:22;;;;;;;3.22;1.15;;;;;;;7.71;100.00;101400.09;4947903;28;20496;-68
2020/12/21 11:11:48;;;;;;;4.45;1.30;;;;;;;7.73;100.00;101394.59;4945683;28;20034;-67
2020/12/21 11:14:13;;;;;;;3.70;0.93;;;;;;;7.72;100.00;101393.75;4947965;28;20031;-67
2020/12/21 11:16:39;;;;;;;3.85;1.17;;;;;;;7.73;100.00;101391.94;4946681;28;20492;-67
2020/12/21 11:19:04;;;;;;;5.05;0.90;;;;;;;7.76;100.00;101378.31;4948107;28;20036;-68